Cattaraugus, New York
Current Conditions -  °F | °C
As of 7:15 AM on Thursday 23 Oct 2014 (Local Time) from KJHW Reporting Station
Overcast Overcast  
Wind Chill: 36°   Ceiling: 800
Heat Index: 43°   Visibility: 10mi
Dew Point: 39°   Wind: 13mph
Humidity: 87%   Direction: 350°N
Pressure: 30.12"   Gusts: 17mph
Location:  42.33°N, 78.87°W
Report Text: KJHW 231115Z AUTO 35011G15KT 10SM BKN008 OVC011 06/04 A3012 RMK AO1
Loading
Personal Weather Stations






























Interactive Weather Map
Tropical Storm Tracking
New forecast layout! Learn more

10-Day Weather Forecast

Advertisements
Track Severe Weather on mobile